Time;durP1;ratioP1;P1;durP2;ratioP2;P2;SDS_P1;SDS_P2;PMS_P1;PMS_P2;Temp;Humidity;BMP_temperature;BMP_pressure;BME280_temperature;BME280_humidity;BME280_pressure;Samples;Min_cycle;Max_cycle;Signal;HPM_P1;HPM_P2
2022/07/11 00:00:05;;;;;;;4.30;2.53;;;;;;;17.21;84.09;102473.47;5013159;28;20046;-51
2022/07/11 00:02:32;;;;;;;4.30;2.85;;;;;;;17.19;85.00;102473.19;5013643;28;20054;-48
2022/07/11 00:04:58;;;;;;;6.28;2.50;;;;;;;17.18;84.51;102477.06;5013969;28;20054;-48
2022/07/11 00:07:25;;;;;;;8.93;2.65;;;;;;;17.17;84.70;102469.44;5013499;28;20483;-49
2022/07/11 00:09:51;;;;;;;9.00;2.40;;;;;;;17.14;85.03;102476.47;5014054;28;20100;-52
2022/07/11 00:12:20;;;;;;;7.25;2.55;;;;;;;17.12;85.80;102475.41;5013577;28;20061;-52
2022/07/11 00:14:49;;;;;;;5.72;2.42;;;;;;;17.10;85.63;102478.53;5013951;28;20078;-52
2022/07/11 00:17:16;;;;;;;5.80;2.17;;;;;;;17.08;86.27;102482.88;5013849;28;20050;-48
2022/07/11 00:19:42;;;;;;;6.00;2.30;;;;;;;17.09;84.96;102482.41;5012169;28;20054;-51
2022/07/11 00:22:09;;;;;;;5.50;2.00;;;;;;;17.15;85.44;102471.84;5013871;28;20050;-54
2022/07/11 00:24:35;;;;;;;5.50;1.98;;;;;;;17.15;85.65;102475.28;4999705;28;20052;-50
2022/07/11 00:27:02;;;;;;;5.03;2.30;;;;;;;17.18;85.34;102473.63;5013983;28;20463;-53
2022/07/11 00:29:29;;;;;;;7.50;2.00;;;;;;;17.15;85.41;102477.22;5013906;28;20150;-46
2022/07/11 00:31:56;;;;;;;3.15;2.13;;;;;;;17.10;85.58;102470.47;5013879;28;20125;-49
2022/07/11 00:34:23;;;;;;;5.05;1.80;;;;;;;17.11;84.72;102468.53;5013372;28;20481;-52
2022/07/11 00:36:49;;;;;;;2.00;1.77;;;;;;;17.08;85.94;102470.16;5013994;28;20505;-53
2022/07/11 00:39:16;;;;;;;5.13;2.15;;;;;;;17.11;85.40;102465.84;5012459;28;20060;-48
2022/07/11 00:41:42;;;;;;;8.80;2.28;;;;;;;17.13;85.69;102477.66;5013173;28;20061;-54
2022/07/11 00:44:09;;;;;;;5.65;1.92;;;;;;;17.12;84.97;102476.16;5013588;28;20162;-49
2022/07/11 00:46:36;;;;;;;4.57;1.85;;;;;;;17.05;84.86;102473.72;5012286;28;20141;-48
2022/07/11 00:49:03;;;;;;;5.82;1.80;;;;;;;17.03;85.70;102468.03;5013650;28;20057;-50
2022/07/11 00:51:30;;;;;;;2.53;1.67;;;;;;;16.98;84.84;102469.38;5013190;28;20165;-50
2022/07/11 00:53:58;;;;;;;2.78;1.65;;;;;;;16.95;85.20;102458.75;5013977;28;20057;-49
2022/07/11 00:56:29;;;;;;;4.03;1.85;;;;;;;16.98;85.43;102458.59;5015214;28;20050;-50
2022/07/11 00:58:57;;;;;;;2.20;1.60;;;;;;;16.99;84.52;102465.47;5016487;28;20451;-50
2022/07/11 01:01:23;;;;;;;5.75;1.95;;;;;;;16.97;84.52;102459.03;5016278;28;20154;-52
2022/07/11 01:03:50;;;;;;;3.65;1.70;;;;;;;17.00;84.83;102455.47;5017021;28;20051;-53
2022/07/11 01:06:16;;;;;;;4.18;1.77;;;;;;;17.05;85.11;102456.84;5016528;28;20455;-50
2022/07/11 01:08:44;;;;;;;4.80;1.65;;;;;;;17.06;86.09;102455.66;5016960;28;20050;-49
2022/07/11 01:11:13;;;;;;;2.28;1.42;;;;;;;17.03;85.80;102468.03;5015904;28;20051;-48
2022/07/11 01:13:40;;;;;;;2.50;1.80;;;;;;;17.04;85.68;102458.78;5015923;28;20054;-50
2022/07/11 01:16:15;;;;;;;1.90;1.40;;;;;;;17.02;85.37;102466.53;5016699;28;20058;-47
2022/07/11 01:18:44;;;;;;;2.15;1.63;;;;;;;16.94;84.14;102471.44;5015144;28;20058;-53
2022/07/11 01:21:19;;;;;;;1.10;1.00;;;;;;;16.94;83.69;102463.38;5016613;28;20061;-52
2022/07/11 01:23:49;;;;;;;1.20;0.95;;;;;;;16.93;84.83;102471.88;5016880;28;20062;-49
2022/07/11 01:26:16;;;;;;;2.22;1.20;;;;;;;16.91;83.92;102474.25;5015857;28;20059;-49
2022/07/11 01:28:43;;;;;;;1.75;1.00;;;;;;;16.86;84.39;102478.28;5016371;28;20058;-47
2022/07/11 01:31:10;;;;;;;3.08;1.30;;;;;;;16.84;85.03;102472.56;5015382;28;20132;-48
2022/07/11 01:33:37;;;;;;;2.95;1.13;;;;;;;16.87;84.96;102470.94;5016230;28;20520;-52
2022/07/11 01:36:04;;;;;;;1.50;1.08;;;;;;;16.88;84.90;102473.19;5016333;28;20046;-50
2022/07/11 01:38:30;;;;;;;1.33;1.10;;;;;;;16.83;84.88;102473.78;5010136;28;20054;-48
2022/07/11 01:40:56;;;;;;;1.98;1.20;;;;;;;16.81;84.65;102472.72;5016292;28;20047;-52
2022/07/11 01:43:23;;;;;;;1.27;0.95;;;;;;;16.77;84.36;102470.19;5015629;28;20148;-53
2022/07/11 01:45:51;;;;;;;3.38;1.20;;;;;;;16.77;85.55;102472.13;5015953;28;20073;-54
2022/07/11 01:48:18;;;;;;;2.95;1.20;;;;;;;16.76;84.66;102474.06;5016333;28;20058;-50
2022/07/11 01:50:46;;;;;;;1.70;1.10;;;;;;;16.73;85.19;102464.19;5016021;28;20050;-46
2022/07/11 01:53:13;;;;;;;3.33;1.38;;;;;;;16.76;85.07;102476.00;5015421;28;20050;-53
2022/07/11 01:55:39;;;;;;;7.55;1.30;;;;;;;16.68;85.41;102464.75;5015656;28;20063;-50
2022/07/11 01:58:26;;;;;;;5.47;1.52;;;;;;;16.66;85.40;102472.50;5015182;28;20498;-50
2022/07/11 02:00:52;;;;;;;2.10;1.20;;;;;;;16.67;85.34;102461.31;5015649;28;20054;-48
2022/07/11 02:03:18;;;;;;;2.35;1.35;;;;;;;16.68;85.04;102467.44;5016107;28;20046;-48
2022/07/11 02:05:45;;;;;;;5.95;1.38;;;;;;;16.71;86.19;102461.19;5014280;28;20059;-49
2022/07/11 02:08:11;;;;;;;2.15;1.23;;;;;;;16.69;85.40;102455.50;5014750;28;20061;-49
2022/07/11 02:10:39;;;;;;;1.85;1.30;;;;;;;16.69;86.07;102463.56;5015684;28;20469;-52
2022/07/11 02:13:05;;;;;;;2.25;1.27;;;;;;;16.66;86.84;102457.13;5016192;28;20080;-48
2022/07/11 02:15:32;;;;;;;3.30;1.27;;;;;;;16.69;87.00;102468.19;5014706;28;20058;-51
2022/07/11 02:17:58;;;;;;;5.10;1.40;;;;;;;16.68;86.41;102456.69;5016215;28;20051;-51
2022/07/11 02:20:25;;;;;;;1.77;1.10;;;;;;;16.71;87.15;102461.19;5012244;28;20058;-50
2022/07/11 02:22:51;;;;;;;1.98;1.40;;;;;;;16.73;86.11;102458.81;5015343;28;20457;-48
2022/07/11 02:25:19;;;;;;;2.45;1.30;;;;;;;16.73;86.74;102461.50;5014170;28;20097;-51
2022/07/11 02:27:45;;;;;;;4.00;1.05;;;;;;;16.76;86.45;102460.59;5015682;28;20050;-48
2022/07/11 02:30:11;;;;;;;1.42;1.30;;;;;;;16.73;85.88;102452.66;5015070;28;20050;-47
2022/07/11 02:32:38;;;;;;;2.80;1.45;;;;;;;16.73;85.94;102458.06;5015606;28;20050;-48
2022/07/11 02:35:05;;;;;;;2.88;1.38;;;;;;;16.76;86.57;102457.16;5015484;28;20601;-47
2022/07/11 02:37:31;;;;;;;8.60;1.60;;;;;;;16.74;86.57;102448.78;5015568;28;20438;-49
2022/07/11 02:39:58;;;;;;;3.28;1.88;;;;;;;16.74;85.99;102452.22;5014908;28;20046;-48
2022/07/11 02:42:24;;;;;;;3.88;1.65;;;;;;;16.68;85.71;102454.00;5015402;28;20065;-47
2022/07/11 02:44:50;;;;;;;2.40;1.30;;;;;;;16.63;86.52;102452.59;5015475;28;20073;-47
2022/07/11 02:47:17;;;;;;;3.75;2.13;;;;;;;16.68;87.32;102448.63;5014560;28;20134;-50
2022/07/11 02:49:43;;;;;;;1.95;1.40;;;;;;;16.71;87.21;102449.66;5015320;28;20050;-50
2022/07/11 02:52:10;;;;;;;4.68;1.48;;;;;;;16.65;86.68;102444.88;5014955;28;20049;-47
2022/07/11 02:54:37;;;;;;;6.97;1.50;;;;;;;16.66;86.86;102445.63;5015099;28;20455;-48
2022/07/11 02:57:03;;;;;;;2.47;1.48;;;;;;;16.70;86.80;102445.47;5014713;28;20050;-51
2022/07/11 02:59:30;;;;;;;1.45;1.33;;;;;;;16.70;86.50;102450.88;5014885;28;20051;-52
2022/07/11 03:01:56;;;;;;;3.40;1.33;;;;;;;16.71;86.92;102455.81;5014683;28;20483;-48
2022/07/11 03:04:22;;;;;;;4.05;1.33;;;;;;;16.67;87.73;102455.19;5014566;28;20061;-47
2022/07/11 03:06:49;;;;;;;2.80;1.30;;;;;;;16.64;87.40;102454.13;5015277;28;20058;-47
2022/07/11 03:09:15;;;;;;;2.97;1.73;;;;;;;16.69;86.82;102462.81;5012543;28;20489;-47
2022/07/11 03:11:42;;;;;;;2.60;1.52;;;;;;;16.70;87.58;102458.94;5015096;28;20057;-46
2022/07/11 03:14:09;;;;;;;3.88;1.80;;;;;;;16.66;87.50;102465.19;5014222;28;20054;-50
2022/07/11 03:16:35;;;;;;;1.85;1.30;;;;;;;16.61;86.78;102465.72;5014910;28;20050;-46
2022/07/11 03:19:02;;;;;;;2.75;1.50;;;;;;;16.61;87.65;102456.91;5013655;28;20055;-47
2022/07/11 03:21:28;;;;;;;3.20;1.83;;;;;;;16.53;88.17;102461.03;5015079;28;20046;-49
2022/07/11 03:23:54;;;;;;;4.78;1.90;;;;;;;16.53;88.57;102461.03;5014623;28;20050;-48
2022/07/11 03:26:21;;;;;;;1.98;1.70;;;;;;;16.51;88.67;102463.41;5014566;28;20051;-46
2022/07/11 03:28:47;;;;;;;2.20;1.90;;;;;;;16.49;88.70;102466.53;5013884;28;20487;-49
2022/07/11 03:31:13;;;;;;;2.75;1.58;;;;;;;16.49;88.42;102466.53;5014440;28;20081;-50
2022/07/11 03:33:40;;;;;;;4.45;1.75;;;;;;;16.49;88.87;102463.84;5014512;28;20061;-49
2022/07/11 03:36:07;;;;;;;4.82;1.95;;;;;;;16.45;89.30;102465.91;5014327;28;20426;-49
2022/07/11 03:38:33;;;;;;;5.75;2.05;;;;;;;16.43;89.16;102462.16;5014515;28;20058;-52
2022/07/11 03:41:00;;;;;;;5.75;1.83;;;;;;;16.42;89.28;102468.72;5013315;28;20052;-52
2022/07/11 03:43:26;;;;;;;3.35;1.80;;;;;;;16.42;88.69;102466.78;5014375;28;20061;-54
2022/07/11 03:45:53;;;;;;;5.88;1.88;;;;;;;16.34;89.65;102466.31;5029465;28;20052;-49
2022/07/11 03:48:19;;;;;;;8.75;1.98;;;;;;;16.37;89.61;102469.31;5014282;28;20517;-53
2022/07/11 03:50:46;;;;;;;3.30;1.73;;;;;;;16.37;89.39;102467.38;5014330;28;20441;-51
2022/07/11 03:53:13;;;;;;;3.38;1.90;;;;;;;16.33;89.73;102462.13;5012053;28;20054;-50
2022/07/11 03:55:40;;;;;;;3.83;1.98;;;;;;;16.33;89.73;102464.81;5014362;28;20082;-52
2022/07/11 03:58:06;;;;;;;7.05;2.20;;;;;;;16.30;90.49;102465.69;5014250;28;20050;-51
2022/07/11 04:00:33;;;;;;;5.88;2.50;;;;;;;16.27;90.35;102460.44;5013126;28;20050;-53
2022/07/11 04:03:00;;;;;;;6.53;2.22;;;;;;;16.25;90.62;102463.56;5014131;28;20058;-48
2022/07/11 04:05:27;;;;;;;5.15;2.20;;;;;;;16.27;91.18;102476.56;5014110;28;20097;-48
2022/07/11 04:07:53;;;;;;;9.30;2.58;;;;;;;16.23;91.52;102471.28;5013865;28;20072;-48
2022/07/11 04:10:19;;;;;;;5.88;2.58;;;;;;;16.22;91.27;102469.78;5013909;28;20054;-49
2022/07/11 04:12:46;;;;;;;4.68;2.55;;;;;;;16.22;91.03;102475.16;5009401;28;20085;-47
2022/07/11 04:15:12;;;;;;;9.68;2.72;;;;;;;16.16;91.75;102481.53;5013076;28;20438;-48
2022/07/11 04:17:39;;;;;;;3.90;2.67;;;;;;;16.15;91.36;102480.78;5013316;28;20051;-53
2022/07/11 04:20:06;;;;;;;4.25;3.13;;;;;;;16.11;91.50;102474.78;5012784;28;20448;-47
2022/07/11 04:22:33;;;;;;;2.75;2.50;;;;;;;16.11;91.93;102476.72;5013159;28;20065;-47
2022/07/11 04:24:59;;;;;;;6.05;3.08;;;;;;;16.12;91.37;102480.91;5012291;28;20054;-46
2022/07/11 04:27:25;;;;;;;3.90;2.22;;;;;;;16.17;91.66;102483.03;5012580;28;20057;-49
2022/07/11 04:29:56;;;;;;;4.85;2.28;;;;;;;16.19;91.35;102483.34;5012878;28;20058;-52
2022/07/11 04:32:22;;;;;;;4.93;2.25;;;;;;;16.21;91.46;102483.66;5015558;28;20050;-47
2022/07/11 04:34:49;;;;;;;5.30;2.55;;;;;;;16.21;91.61;102475.59;5015914;28;20080;-50
2022/07/11 04:37:15;;;;;;;3.30;2.17;;;;;;;16.19;91.08;102481.41;5016183;28;20070;-51
2022/07/11 04:39:45;;;;;;;5.55;2.40;;;;;;;16.17;91.33;102472.28;5016595;28;20162;-51
2022/07/11 04:42:11;;;;;;;3.42;2.25;;;;;;;16.14;91.55;102467.78;5015487;28;20053;-46
2022/07/11 04:44:37;;;;;;;3.03;2.30;;;;;;;16.11;91.99;102468.66;5016436;28;20511;-50
2022/07/11 04:47:04;;;;;;;3.97;2.22;;;;;;;16.06;92.06;102463.84;5015981;28;20051;-50
2022/07/11 04:49:31;;;;;;;3.05;2.20;;;;;;;16.08;92.69;102466.84;5014367;28;20078;-46
2022/07/11 04:51:57;;;;;;;6.13;2.75;;;;;;;16.11;92.17;102474.78;5015296;28;20137;-47
2022/07/11 04:54:28;;;;;;;3.53;2.10;;;;;;;16.05;92.64;102476.53;5015722;28;20057;-48
2022/07/11 04:56:55;;;;;;;5.60;2.40;;;;;;;16.05;93.64;102481.88;5016023;28;20282;-48
2022/07/11 04:59:26;;;;;;;4.63;2.33;;;;;;;16.06;93.33;102474.59;5016252;28;20054;-49
2022/07/11 05:01:52;;;;;;;2.55;2.35;;;;;;;16.10;93.12;102486.72;5014489;28;20166;-48
2022/07/11 05:04:19;;;;;;;3.13;2.22;;;;;;;16.11;93.77;102485.53;5014846;28;20062;-50
2022/07/11 05:06:45;;;;;;;5.93;2.42;;;;;;;16.15;93.56;102494.22;5015129;28;20053;-51
2022/07/11 05:09:13;;;;;;;4.05;2.60;;;;;;;16.18;93.68;102493.34;5014400;28;20050;-50
2022/07/11 05:11:39;;;;;;;2.65;2.20;;;;;;;16.19;94.38;102494.84;5014738;28;20089;-47
2022/07/11 05:14:06;;;;;;;6.00;2.80;;;;;;;16.24;93.88;102499.66;5014481;28;20042;-50
2022/07/11 05:16:32;;;;;;;2.58;2.35;;;;;;;16.26;94.00;102502.66;5015101;28;20050;-49
2022/07/11 05:18:59;;;;;;;6.78;2.70;;;;;;;16.27;93.68;102498.81;5015369;28;20134;-49
2022/07/11 05:21:25;;;;;;;2.67;2.40;;;;;;;16.25;93.40;102505.78;5014777;28;20579;-49
2022/07/11 05:23:52;;;;;;;2.80;2.60;;;;;;;16.20;93.36;102512.47;5014548;28;20059;-50
2022/07/11 05:26:20;;;;;;;2.50;2.30;;;;;;;16.26;93.59;102518.03;5015657;28;20062;-49
2022/07/11 05:28:46;;;;;;;3.75;2.40;;;;;;;16.28;94.03;102521.03;5015089;28;20058;-48
2022/07/11 05:31:12;;;;;;;2.63;2.40;;;;;;;16.35;94.07;102515.44;5014951;28;20174;-47
2022/07/11 05:33:39;;;;;;;3.30;2.70;;;;;;;16.43;94.15;102515.91;5010456;28;20176;-47
2022/07/11 05:36:06;;;;;;;4.72;2.78;;;;;;;16.44;93.08;102512.78;5013160;28;20081;-50
2022/07/11 05:38:33;;;;;;;2.55;2.20;;;;;;;16.58;92.89;102517.69;5014694;28;20625;-48
2022/07/11 05:40:59;;;;;;;4.22;1.80;;;;;;;16.71;92.85;102520.34;5014358;28;20054;-50
2022/07/11 05:43:26;;;;;;;1.92;1.77;;;;;;;16.88;91.60;102523.56;5013521;28;20137;-53
2022/07/11 05:45:52;;;;;;;1.55;1.40;;;;;;;17.00;90.60;102525.41;5014193;28;20061;-51
2022/07/11 05:48:19;;;;;;;1.30;1.25;;;;;;;17.03;90.72;102529.16;5013958;28;20050;-52
2022/07/11 05:50:45;;;;;;;1.10;1.00;;;;;;;17.11;89.20;102523.09;5014796;28;20141;-49
2022/07/11 05:53:12;;;;;;;1.75;1.25;;;;;;;17.14;89.52;102524.91;5015445;28;20065;-48
2022/07/11 05:55:39;;;;;;;1.40;1.30;;;;;;;17.29;89.19;102520.47;5015105;28;20057;-50
2022/07/11 05:58:05;;;;;;;1.08;1.08;;;;;;;17.57;88.37;102518.63;5014996;28;20495;-50
2022/07/11 06:00:32;;;;;;;3.00;1.42;;;;;;;18.18;85.48;102522.31;5015592;28;20099;-50
2022/07/11 06:02:58;;;;;;;1.10;1.00;;;;;;;18.43;84.14;102525.88;5015691;28;20069;-50
2022/07/11 06:05:25;;;;;;;0.77;0.77;;;;;;;18.63;83.58;102521.53;5015431;28;20419;-52
2022/07/11 06:10:37;;;;;;;2.83;0.73;;;;;;;19.52;78.84;102525.59;5016005;28;20069;-52
2022/07/11 06:13:04;;;;;;;1.30;1.10;;;;;;;19.36;78.07;102523.22;5014223;28;20046;-52
2022/07/11 06:15:30;;;;;;;3.30;1.20;;;;;;;18.81;78.77;102531.53;5015912;28;20060;-50
2022/07/11 06:17:57;;;;;;;2.20;1.05;;;;;;;18.38;79.37;102531.88;5015035;28;20058;-50
2022/07/11 06:20:23;;;;;;;0.80;0.80;;;;;;;18.05;80.39;102527.06;5015519;28;20054;-47
2022/07/11 06:22:50;;;;;;;4.90;0.70;;;;;;;17.77;81.87;102531.69;5015715;28;20057;-49
2022/07/11 06:25:16;;;;;;;2.45;0.95;;;;;;;17.64;83.22;102521.00;5015719;28;20050;-48
2022/07/11 06:27:43;;;;;;;0.60;0.60;;;;;;;17.87;82.29;102527.81;5015807;28;20062;-47
2022/07/11 06:30:16;;;;;;;0.73;0.70;;;;;;;19.49;78.71;102520.31;5015068;28;20524;-47
2022/07/11 06:32:42;;;;;;;1.17;0.80;;;;;;;20.69;71.17;102527.06;5015706;28;20066;-47
2022/07/11 06:35:09;;;;;;;0.98;0.82;;;;;;;20.04;72.31;102534.22;5015528;28;20061;-54
2022/07/11 06:37:35;;;;;;;2.47;0.93;;;;;;;19.30;76.11;102535.84;5015825;28;20493;-50
2022/07/11 06:40:02;;;;;;;0.85;0.85;;;;;;;18.91;76.65;102526.84;5015316;28;20137;-50
2022/07/11 06:42:28;;;;;;;1.45;0.95;;;;;;;18.75;77.87;102530.66;5015458;28;20430;-47
2022/07/11 06:44:55;;;;;;;1.58;1.23;;;;;;;18.63;78.60;102524.25;5013537;28;20050;-48
2022/07/11 06:47:21;;;;;;;1.15;0.85;;;;;;;18.47;78.17;102521.06;5015213;28;20052;-47
2022/07/11 06:49:47;;;;;;;2.17;0.98;;;;;;;18.52;78.54;102517.78;5015341;28;20054;-52
2022/07/11 06:52:14;;;;;;;1.65;1.00;;;;;;;18.81;78.19;102520.72;5014131;28;20058;-48
2022/07/11 06:54:41;;;;;;;2.90;0.60;;;;;;;18.86;78.23;102522.06;5014601;28;20061;-48
2022/07/11 06:57:07;;;;;;;0.82;0.63;;;;;;;18.77;76.92;102508.63;5015163;28;20529;-48
2022/07/11 06:59:37;;;;;;;0.50;0.50;;;;;;;18.68;76.54;102516.75;5014369;28;20057;-49
2022/07/11 07:02:04;;;;;;;0.80;0.40;;;;;;;18.51;77.28;102516.28;5015194;28;20054;-52
2022/07/11 07:04:30;;;;;;;0.63;0.63;;;;;;;18.40;77.42;102518.69;5014595;28;20054;-50
2022/07/11 07:06:58;;;;;;;0.60;0.60;;;;;;;18.28;78.09;102521.09;5015172;28;20054;-50
2022/07/11 07:09:26;;;;;;;0.50;0.50;;;;;;;18.31;77.50;102511.38;5014357;28;20153;-47
2022/07/11 07:11:52;;;;;;;0.50;0.50;;;;;;;18.57;78.81;102517.16;5014758;28;20053;-47
2022/07/11 07:14:19;;;;;;;0.50;0.50;;;;;;;19.13;77.75;102513.16;5013859;28;20061;-50
2022/07/11 07:16:45;;;;;;;1.40;0.70;;;;;;;19.78;72.59;102515.06;5029571;28;20055;-48
2022/07/11 07:19:12;;;;;;;0.45;0.45;;;;;;;20.03;70.06;102515.78;5014505;28;20102;-47
2022/07/11 07:21:38;;;;;;;0.55;0.50;;;;;;;20.12;70.00;102523.81;5014595;28;20051;-49
2022/07/11 07:24:05;;;;;;;0.63;0.50;;;;;;;19.88;70.80;102521.16;5014703;28;20430;-47
2022/07/11 07:26:32;;;;;;;0.70;0.40;;;;;;;19.74;72.19;102521.84;5013278;28;20050;-50
2022/07/11 07:28:59;;;;;;;0.32;0.32;;;;;;;22.67;62.56;102530.53;5014715;28;20060;-48
2022/07/11 07:31:25;;;;;;;0.40;0.40;;;;;;;23.33;57.58;102532.22;5012674;28;20053;-47
2022/07/11 07:33:53;;;;;;;0.73;0.73;;;;;;;25.82;54.26;102526.66;5014577;28;20109;-47
2022/07/11 07:36:19;;;;;;;0.52;0.52;;;;;;;28.87;45.17;102527.66;5014336;28;20046;-47
2022/07/11 07:38:47;;;;;;;0.77;0.60;;;;;;;28.14;44.66;102534.31;5014657;28;20050;-52
2022/07/11 07:41:15;;;;;;;1.67;0.50;;;;;;;25.20;50.44;102530.84;5013592;28;20108;-53
2022/07/11 07:43:42;;;;;;;0.40;0.40;;;;;;;23.11;56.42;102538.28;5014401;28;20129;-47
2022/07/11 07:46:10;;;;;;;0.40;0.40;;;;;;;21.88;59.14;102533.69;5013940;28;20046;-48
2022/07/11 07:48:37;;;;;;;0.43;0.43;;;;;;;21.19;63.43;102540.66;5012780;28;20066;-46
2022/07/11 07:51:04;;;;;;;0.50;0.50;;;;;;;20.88;64.32;102535.72;5013866;28;20054;-54
2022/07/11 07:53:31;;;;;;;0.50;0.50;;;;;;;20.63;66.52;102537.81;5013730;28;20057;-50
2022/07/11 07:55:57;;;;;;;0.60;0.60;;;;;;;20.73;67.01;102535.75;5014232;28;20050;-48
2022/07/11 07:58:24;;;;;;;1.17;0.52;;;;;;;21.26;66.73;102534.84;5011663;28;20145;-52
2022/07/11 08:03:35;;;;;;;0.82;0.50;;;;;;;25.75;53.30;102535.38;5012870;28;20054;-48
2022/07/11 08:06:02;;;;;;;0.40;0.40;;;;;;;26.98;48.08;102534.50;5013857;28;20057;-52
2022/07/11 08:08:28;;;;;;;0.43;0.43;;;;;;;25.42;52.43;102536.22;5013813;28;20173;-50
2022/07/11 08:10:55;;;;;;;0.50;0.50;;;;;;;23.86;53.02;102539.66;5014138;28;20137;-49
2022/07/11 08:13:42;;;;;;;1.45;0.40;;;;;;;22.51;56.32;102541.97;5013995;28;20054;-52
2022/07/11 08:16:09;;;;;;;0.52;0.43;;;;;;;21.87;61.43;102551.16;5014075;28;20054;-53
2022/07/11 08:18:35;;;;;;;0.50;0.50;;;;;;;21.53;62.34;102544.59;5012636;28;20081;-52
2022/07/11 08:21:02;;;;;;;0.52;0.40;;;;;;;21.19;65.17;102546.78;5013815;28;20054;-50
2022/07/11 08:23:29;;;;;;;0.40;0.40;;;;;;;21.10;66.80;102549.63;5009982;28;20061;-50
2022/07/11 08:25:55;;;;;;;0.50;0.50;;;;;;;20.99;66.19;102552.16;5012715;28;20054;-47
2022/07/11 08:28:22;;;;;;;0.70;0.70;;;;;;;20.91;66.95;102548.31;5011918;28;20482;-50
2022/07/11 08:30:48;;;;;;;2.58;0.60;;;;;;;20.73;67.17;102543.88;5012579;28;20060;-49
2022/07/11 08:33:15;;;;;;;5.07;0.70;;;;;;;20.49;66.99;102541.22;5011575;28;20046;-51
2022/07/11 08:35:41;;;;;;;0.43;0.43;;;;;;;20.39;68.12;102544.50;5009689;28;20081;-52
2022/07/11 08:38:07;;;;;;;2.05;0.43;;;;;;;20.33;69.62;102538.97;5012446;28;20054;-53
2022/07/11 08:40:34;;;;;;;0.90;0.70;;;;;;;20.48;69.30;102536.28;5009707;28;20485;-50
2022/07/11 08:43:02;;;;;;;1.08;0.70;;;;;;;20.67;69.47;102534.91;5011922;28;20054;-47
2022/07/11 08:45:30;;;;;;;1.98;0.60;;;;;;;20.89;69.50;102537.22;5012592;28;20054;-51
2022/07/11 08:47:58;;;;;;;1.55;0.50;;;;;;;21.12;68.16;102538.31;5010899;28;20470;-51
2022/07/11 08:50:27;;;;;;;3.75;0.40;;;;;;;20.91;67.22;102524.72;5012380;28;20058;-52
2022/07/11 08:52:54;;;;;;;0.60;0.60;;;;;;;20.88;69.47;102531.06;5010633;28;20515;-51
2022/07/11 08:55:22;;;;;;;1.30;0.55;;;;;;;20.76;67.77;102529.41;5012423;28;20055;-51
2022/07/11 08:57:49;;;;;;;0.40;0.40;;;;;;;20.67;67.98;102532.19;5012094;28;20054;-54
2022/07/11 09:00:16;;;;;;;0.40;0.40;;;;;;;20.57;68.43;102523.44;5011279;28;20060;-48
2022/07/11 09:02:44;;;;;;;0.40;0.40;;;;;;;20.44;69.29;102538.44;5012120;28;20047;-49
2022/07/11 09:05:11;;;;;;;1.15;0.40;;;;;;;20.30;68.93;102537.19;5012386;28;20117;-51
2022/07/11 09:07:49;;;;;;;0.50;0.50;;;;;;;20.38;68.74;102543.75;5011428;28;20534;-51
2022/07/11 09:10:18;;;;;;;0.40;0.40;;;;;;;20.51;69.16;102540.78;5012309;28;20057;-49
2022/07/11 09:13:04;;;;;;;0.52;0.52;;;;;;;20.54;69.24;102537.88;5010251;28;20054;-47
2022/07/11 09:15:31;;;;;;;0.40;0.40;;;;;;;20.54;69.13;102546.00;5012271;28;20054;-52
2022/07/11 09:17:58;;;;;;;0.40;0.40;;;;;;;20.51;67.75;102540.78;5013164;28;20050;-52
2022/07/11 09:20:24;;;;;;;0.65;0.30;;;;;;;20.55;70.87;102547.50;5015177;28;20057;-51
2022/07/11 09:25:42;;;;;;;0.50;0.40;;;;;;;20.14;68.72;102551.13;5012222;28;20054;-51
2022/07/11 09:28:09;;;;;;;0.40;0.40;;;;;;;20.09;71.16;102543.66;5014079;28;20058;-48
2022/07/11 09:30:43;;;;;;;0.50;0.50;;;;;;;19.97;70.62;102548.88;5013793;28;20502;-47
2022/07/11 09:33:15;;;;;;;0.85;0.50;;;;;;;19.84;71.40;102553.00;5014674;28;20058;-46
2022/07/11 09:35:45;;;;;;;0.60;0.60;;;;;;;19.77;72.63;102551.38;5012328;28;20140;-48
2022/07/11 09:38:15;;;;;;;0.88;0.60;;;;;;;19.68;71.71;102550.69;5014704;28;20069;-47
2022/07/11 09:40:44;;;;;;;0.57;0.57;;;;;;;19.73;72.92;102550.06;5014977;28;20050;-47
2022/07/11 09:43:10;;;;;;;0.82;0.68;;;;;;;19.79;72.31;102550.94;5014365;28;20470;-48
2022/07/11 09:45:37;;;;;;;2.58;0.50;;;;;;;19.88;72.50;102545.47;5014940;28;20058;-48
2022/07/11 09:48:12;;;;;;;0.50;0.50;;;;;;;19.98;71.42;102546.91;5015142;28;20142;-51
2022/07/11 09:50:40;;;;;;;3.65;0.80;;;;;;;19.94;71.38;102540.94;5014887;28;20590;-48
2022/07/11 09:53:15;;;;;;;0.50;0.50;;;;;;;20.04;70.70;102545.03;5012872;28;20063;-48
2022/07/11 09:55:46;;;;;;;0.50;0.50;;;;;;;20.03;69.92;102540.84;5015004;28;20062;-51
2022/07/11 09:58:18;;;;;;;0.60;0.60;;;;;;;20.16;69.74;102546.75;5015699;28;20058;-49
2022/07/11 10:00:45;;;;;;;1.58;0.60;;;;;;;20.35;69.26;102549.31;5012802;28;20161;-50
2022/07/11 10:03:12;;;;;;;0.75;0.60;;;;;;;20.56;68.86;102549.00;5012617;28;20298;-51
2022/07/11 10:05:58;;;;;;;0.40;0.40;;;;;;;20.81;70.28;102541.50;5013935;28;20065;-52
2022/07/11 10:08:25;;;;;;;0.50;0.50;;;;;;;21.16;67.79;102544.28;5011240;28;20058;-52
2022/07/11 10:10:53;;;;;;;0.55;0.50;;;;;;;21.10;68.68;102538.78;5014707;28;20050;-51
2022/07/11 10:13:20;;;;;;;2.13;0.60;;;;;;;21.03;66.43;102535.72;5011098;28;20061;-51
2022/07/11 10:15:47;;;;;;;0.50;0.50;;;;;;;20.91;65.53;102537.50;5013582;28;20054;-50
2022/07/11 10:18:34;;;;;;;0.50;0.50;;;;;;;20.97;67.89;102536.38;5013896;28;20593;-53
2022/07/11 10:21:09;;;;;;;2.00;0.52;;;;;;;21.15;68.02;102538.13;5014754;28;20054;-52
2022/07/11 10:23:38;;;;;;;0.70;0.40;;;;;;;21.24;68.13;102543.44;5012900;28;20525;-54
2022/07/11 10:26:27;;;;;;;0.40;0.40;;;;;;;21.51;67.52;102547.75;5013538;28;20054;-51
2022/07/11 10:29:10;;;;;;;0.38;0.38;;;;;;;21.65;66.08;102554.34;5010458;28;20058;-51
2022/07/11 10:31:36;;;;;;;0.50;0.50;;;;;;;21.57;62.61;102545.88;5012056;28;20060;-50
2022/07/11 10:34:27;;;;;;;0.30;0.30;;;;;;;21.75;65.79;102546.81;5013633;28;20054;-51
2022/07/11 10:36:59;;;;;;;0.30;0.30;;;;;;;21.94;64.71;102553.47;5014604;28;20058;-49
2022/07/11 10:39:29;;;;;;;0.55;0.50;;;;;;;22.00;64.39;102548.84;5014199;28;20062;-49
2022/07/11 10:41:57;;;;;;;6.80;1.70;;;;;;;21.73;63.21;102546.53;5012391;28;20047;-50
2022/07/11 10:44:24;;;;;;;0.55;0.55;;;;;;;21.69;65.05;102546.00;5013741;28;20081;-49
2022/07/11 10:46:52;;;;;;;0.52;0.52;;;;;;;21.81;64.27;102545.66;5013483;28;20050;-49
2022/07/11 10:49:48;;;;;;;0.35;0.35;;;;;;;21.83;66.04;102547.91;5008174;28;20058;-53
2022/07/11 10:52:22;;;;;;;0.60;0.60;;;;;;;21.90;65.13;102550.22;5010623;28;20054;-51
2022/07/11 10:55:05;;;;;;;4.63;0.65;;;;;;;21.96;66.08;102549.06;5011421;28;20057;-50
2022/07/11 10:57:39;;;;;;;;;;;;;;;21.88;65.00;102555.38;5013162;28;20061;-48
2022/07/11 11:00:09;;;;;;;0.55;0.40;;;;;;;21.81;65.99;102551.09;5012887;28;20394;-52
2022/07/11 11:03:08;;;;;;;0.60;0.60;;;;;;;21.91;66.41;102541.59;5013486;28;20109;-50
2022/07/11 11:05:43;;;;;;;2.05;0.60;;;;;;;21.89;64.99;102548.72;5012274;28;20061;-51
2022/07/11 11:08:31;;;;;;;0.43;0.43;;;;;;;21.89;66.27;102552.19;5013339;28;20046;-51
2022/07/11 11:11:06;;;;;;;0.60;0.60;;;;;;;21.87;65.24;102551.91;5012922;28;20479;-47
2022/07/11 11:13:37;;;;;;;0.95;0.60;;;;;;;21.67;66.81;102551.16;5013164;28;20057;-54
2022/07/11 11:16:20;;;;;;;;;;;;;;;21.92;66.65;102542.34;5013374;28;20047;-54
2022/07/11 11:18:46;;;;;;;3.40;0.73;;;;;;;21.86;65.68;102552.38;5011057;28;19965;-51
2022/07/11 11:21:14;;;;;;;0.70;0.70;;;;;;;21.88;63.99;102556.13;5013458;28;20578;-50
2022/07/11 11:24:00;;;;;;;1.20;0.60;;;;;;;21.94;63.99;102559.63;5012950;28;20051;-52
2022/07/11 11:26:51;;;;;;;0.50;0.50;;;;;;;21.80;65.48;102555.03;5013852;28;20046;-51
2022/07/11 11:29:27;;;;;;;0.60;0.60;;;;;;;21.98;66.60;102558.69;5012706;28;20486;-52
2022/07/11 11:31:56;;;;;;;0.52;0.52;;;;;;;22.06;67.16;102565.94;5012967;28;20066;-52
2022/07/11 11:34:23;;;;;;;0.90;0.70;;;;;;;22.14;65.83;102564.31;5010439;28;20052;-52
2022/07/11 11:36:55;;;;;;;0.60;0.60;;;;;;;22.15;62.94;102562.34;5012884;28;20050;-53
2022/07/11 11:39:30;;;;;;;;;;;;;;;22.08;64.67;102558.06;5012222;28;20514;-50